Time;durP1;ratioP1;P1;durP2;ratioP2;P2;SDS_P1;SDS_P2;PMS_P1;PMS_P2;Temp;Humidity;BMP_temperature;BMP_pressure;BME280_temperature;BME280_humidity;BME280_pressure;Samples;Min_cycle;Max_cycle;Signal;HPM_P1;HPM_P2
2021/07/07 00:00:11;;;;;;;1.30;1.20;;;;;;;22.08;100.00;97344.28;4986717;28;20203;-65
2021/07/07 00:02:37;;;;;;;2.80;1.17;;;;;;;22.08;100.00;97341.72;4979836;28;20207;-65
2021/07/07 00:05:06;;;;;;;1.63;1.53;;;;;;;21.63;100.00;97272.38;4965151;28;20258;-62
2021/07/07 00:07:32;;;;;;;1.40;1.30;;;;;;;21.81;100.00;97305.25;4965490;28;20199;-65
2021/07/07 00:10:00;;;;;;;1.47;1.37;;;;;;;22.09;100.00;97342.59;4961904;28;20282;-65
2021/07/07 00:12:26;;;;;;;1.77;1.40;;;;;;;22.09;100.00;97347.72;4978837;28;20234;-65
2021/07/07 00:14:53;;;;;;;1.40;1.30;;;;;;;22.08;100.00;97348.56;4982022;28;20302;-65
2021/07/07 00:17:20;;;;;;;1.40;1.30;;;;;;;22.09;100.00;97352.84;4987484;28;20203;-65
2021/07/07 00:19:46;;;;;;;1.47;1.33;;;;;;;21.45;100.00;97241.22;4985187;28;20250;-66
2021/07/07 00:22:16;;;;;;;1.80;1.40;;;;;;;22.08;100.00;97344.28;4983431;28;20220;-65
2021/07/07 00:24:42;;;;;;;1.50;1.40;;;;;;;22.08;100.00;97341.72;4976543;28;20310;-65
2021/07/07 00:27:10;;;;;;;1.43;1.33;;;;;;;21.81;100.00;97297.56;4983778;28;20199;-66
2021/07/07 00:29:37;;;;;;;1.40;1.30;;;;;;;22.09;100.00;97342.59;4980675;28;20295;-67
2021/07/07 00:32:04;;;;;;;1.40;1.30;;;;;;;22.09;100.00;97345.16;4982361;28;20199;-66
2021/07/07 00:34:30;;;;;;;1.60;1.50;;;;;;;22.08;100.00;97341.72;4981058;28;20322;-64
2021/07/07 00:36:57;;;;;;;1.00;1.00;;;;;;;22.08;100.00;97336.63;4980414;28;20231;-66
2021/07/07 00:39:23;;;;;;;2.00;1.73;;;;;;;21.93;100.00;97312.38;4982607;28;20205;-67
2021/07/07 00:41:50;;;;;;;1.50;1.40;;;;;;;21.98;100.00;97324.44;4967368;28;20231;-65
2021/07/07 00:44:16;;;;;;;1.70;1.40;;;;;;;22.05;100.00;97328.03;4969410;28;20719;-65
2021/07/07 00:46:45;;;;;;;1.30;1.20;;;;;;;21.60;100.00;97245.84;4977760;28;20625;-66
2021/07/07 00:49:14;;;;;;;1.60;1.50;;;;;;;22.04;100.00;97321.16;4985757;28;20199;-65
2021/07/07 00:51:40;;;;;;;2.00;1.30;;;;;;;21.68;100.00;97265.66;4969343;28;20230;-65
2021/07/07 00:54:08;;;;;;;1.40;1.30;;;;;;;21.86;100.00;97293.44;4985778;28;20314;-65
2021/07/07 00:56:43;;;;;;;1.40;1.30;;;;;;;22.04;100.00;97324.59;4957488;28;20227;-64
2021/07/07 00:59:10;;;;;;;1.47;1.37;;;;;;;21.61;100.00;97251.00;4979910;28;20241;-66
2021/07/07 01:01:39;;;;;;;2.30;1.20;;;;;;;22.06;100.00;97334.84;4978584;28;20403;-67
2021/07/07 01:04:06;;;;;;;1.40;1.30;;;;;;;21.51;100.00;97248.19;4977977;28;20250;-65
2021/07/07 01:06:32;;;;;;;1.50;1.40;;;;;;;22.06;100.00;97347.66;4980337;28;20282;-64
2021/07/07 01:08:59;;;;;;;1.50;1.40;;;;;;;22.06;100.00;97343.41;4984138;28;20203;-67
2021/07/07 01:11:25;;;;;;;1.40;1.30;;;;;;;22.06;100.00;97335.72;4986451;28;20241;-64
2021/07/07 01:13:52;;;;;;;2.10;1.50;;;;;;;22.06;100.00;97328.06;4962239;28;20729;-65
2021/07/07 01:16:18;;;;;;;1.40;1.30;;;;;;;22.07;100.00;97326.34;4985267;28;20233;-65
2021/07/07 01:18:45;;;;;;;1.30;1.20;;;;;;;21.61;100.00;97256.13;4978109;28;20723;-65
2021/07/07 01:21:12;;;;;;;1.30;1.20;;;;;;;21.30;100.00;97202.50;4967105;28;20290;-65
2021/07/07 01:23:38;;;;;;;1.53;1.43;;;;;;;22.07;100.00;97326.34;4966339;28;20776;-64
2021/07/07 01:26:05;;;;;;;1.57;1.47;;;;;;;22.06;100.00;97338.28;4985211;28;20297;-64
2021/07/07 01:28:32;;;;;;;1.50;1.40;;;;;;;;;;4983446;28;20238;-65
2021/07/07 01:30:59;;;;;;;1.33;1.27;;;;;;;22.08;100.00;97340.88;4984948;28;20230;-67
2021/07/07 01:33:25;;;;;;;1.40;1.30;;;;;;;;;;4987770;28;20231;-65
2021/07/07 01:35:52;;;;;;;1.30;1.20;;;;;;;;;;4984516;28;20237;-64
2021/07/07 01:38:18;;;;;;;1.57;1.23;;;;;;;22.07;100.00;97341.69;4989270;28;20227;-68
2021/07/07 01:40:45;;;;;;;1.40;1.30;;;;;;;22.01;100.00;97328.75;4983029;28;20215;-65
2021/07/07 01:43:11;;;;;;;1.33;1.23;;;;;;;22.08;100.00;97348.56;4974493;28;20230;-65
2021/07/07 01:45:38;;;;;;;1.40;1.30;;;;;;;22.08;100.00;97351.97;4976261;28;20680;-65
2021/07/07 01:48:05;;;;;;;1.30;1.20;;;;;;;21.22;100.00;97208.22;4958783;28;20320;-64
2021/07/07 01:50:31;;;;;;;1.40;1.30;;;;;;;22.09;100.00;97370.75;4985171;28;20276;-66
2021/07/07 01:52:58;;;;;;;1.40;1.30;;;;;;;22.08;100.00;97366.47;4966096;28;20241;-65
2021/07/07 01:55:27;;;;;;;1.50;1.40;;;;;;;;;;4982069;28;20647;-65
2021/07/07 01:57:54;;;;;;;1.40;1.30;;;;;;;22.05;100.00;97368.97;4966572;28;20302;-67
2021/07/07 02:00:32;;;;;;;1.40;1.30;;;;;;;22.06;100.00;97366.44;4985125;28;20234;-65
2021/07/07 02:02:59;;;;;;;1.40;1.30;;;;;;;22.04;100.00;97360.41;4986370;28;20714;-65
2021/07/07 02:05:30;;;;;;;2.00;1.30;;;;;;;22.04;100.00;97374.88;4985106;28;20226;-65
2021/07/07 02:07:58;;;;;;;1.40;1.30;;;;;;;22.03;100.00;97363.81;4968106;28;20264;-65
2021/07/07 02:10:25;;;;;;;2.13;1.30;;;;;;;22.02;100.00;97374.84;4984345;28;20286;-65
2021/07/07 02:12:51;;;;;;;1.20;1.13;;;;;;;22.04;100.00;97377.44;4989839;28;20304;-66
2021/07/07 02:15:22;;;;;;;1.30;1.20;;;;;;;22.04;100.00;97380.88;4966955;28;20238;-64
2021/07/07 02:17:49;;;;;;;1.20;1.20;;;;;;;22.03;100.00;97379.16;4977342;28;20286;-66
2021/07/07 02:20:18;;;;;;;1.20;1.20;;;;;;;22.06;100.00;97386.03;4980866;28;20239;-65
2021/07/07 02:22:46;;;;;;;1.40;1.30;;;;;;;21.78;100.00;97332.44;4982729;28;20551;-65
2021/07/07 02:25:24;;;;;;;1.40;1.30;;;;;;;22.06;100.00;97380.94;4961982;28;20302;-65
2021/07/07 02:27:52;;;;;;;1.50;1.40;;;;;;;22.05;100.00;97381.75;4985117;28;20282;-64
2021/07/07 02:30:20;;;;;;;1.40;1.30;;;;;;;22.06;100.00;97381.81;4978800;28;20265;-66
2021/07/07 02:32:47;;;;;;;1.30;1.20;;;;;;;21.58;100.00;97296.97;4980377;28;20230;-65
2021/07/07 02:35:18;;;;;;;1.60;1.50;;;;;;;22.06;100.00;97376.69;4984048;28;20263;-65
2021/07/07 02:37:47;;;;;;;1.30;1.20;;;;;;;22.06;100.00;97360.44;4980353;28;20206;-66
2021/07/07 02:40:14;;;;;;;1.30;1.20;;;;;;;22.06;100.00;97351.09;4989981;28;20257;-65
2021/07/07 02:42:41;;;;;;;1.17;1.17;;;;;;;21.89;100.00;97316.53;4980660;28;20311;-65
2021/07/07 02:45:08;;;;;;;1.40;1.30;;;;;;;21.32;100.00;97215.31;4981874;28;20303;-66
2021/07/07 02:47:34;;;;;;;1.50;1.40;;;;;;;21.96;100.00;97323.53;4985023;28;20285;-66
2021/07/07 02:50:02;;;;;;;1.33;1.10;;;;;;;22.06;100.00;97339.97;4989248;28;20195;-65
2021/07/07 02:52:29;;;;;;;1.47;1.37;;;;;;;22.07;100.00;97354.50;4980029;28;20234;-64
2021/07/07 02:54:56;;;;;;;1.33;1.23;;;;;;;22.01;100.00;97344.97;4964171;28;20301;-65
2021/07/07 02:57:22;;;;;;;2.20;1.40;;;;;;;22.08;100.00;97359.66;4985542;28;20203;-66
2021/07/07 02:59:49;;;;;;;1.27;1.20;;;;;;;20.89;100.00;97157.13;4983224;28;20286;-65
2021/07/07 03:02:15;;;;;;;1.60;1.30;;;;;;;;;;4985428;28;20225;-65
2021/07/07 03:04:42;;;;;;;1.17;1.17;;;;;;;21.86;100.00;97325.81;4981432;28;20728;-66
2021/07/07 03:07:08;;;;;;;1.10;1.10;;;;;;;;;;4987441;28;20195;-67
2021/07/07 03:09:35;;;;;;;1.53;1.40;;;;;;;22.08;100.00;97382.69;4989023;28;20294;-65
2021/07/07 03:12:01;;;;;;;1.57;1.47;;;;;;;22.08;100.00;97390.34;4968565;28;20282;-65
2021/07/07 03:14:28;;;;;;;1.30;1.20;;;;;;;22.07;100.00;97387.75;4965776;28;20233;-65
2021/07/07 03:16:54;;;;;;;1.30;1.20;;;;;;;22.06;100.00;97391.16;4981081;28;20596;-65
2021/07/07 03:19:21;;;;;;;1.37;1.27;;;;;;;22.05;100.00;97381.75;4985023;28;20247;-64
2021/07/07 03:21:48;;;;;;;1.40;1.30;;;;;;;22.04;100.00;97365.53;4985847;28;20258;-67
2021/07/07 03:24:14;;;;;;;1.30;1.20;;;;;;;22.03;100.00;97361.25;4986524;28;20676;-65
2021/07/07 03:26:41;;;;;;;1.53;1.30;;;;;;;22.03;100.00;97376.59;4977924;28;20230;-62
2021/07/07 03:29:07;;;;;;;1.10;1.10;;;;;;;22.04;100.00;97390.25;4985566;28;20249;-66
2021/07/07 03:31:35;;;;;;;1.30;1.20;;;;;;;22.03;100.00;97381.72;4979048;28;20238;-65
2021/07/07 03:34:02;;;;;;;1.50;1.40;;;;;;;22.04;100.00;97387.69;4979060;28;20290;-65
2021/07/07 03:36:28;;;;;;;1.50;1.40;;;;;;;22.04;100.00;97393.69;4976173;28;20209;-66
2021/07/07 03:38:55;;;;;;;1.40;1.30;;;;;;;22.04;100.00;97401.34;4978116;28;20291;-65
2021/07/07 03:41:22;;;;;;;1.47;1.37;;;;;;;22.04;100.00;97403.91;4986463;28;20669;-65
2021/07/07 03:43:48;;;;;;;1.30;1.20;;;;;;;21.94;100.00;97388.28;4980391;28;20307;-66
2021/07/07 03:46:15;;;;;;;1.33;1.23;;;;;;;22.05;100.00;97404.78;4980973;28;20203;-63
2021/07/07 03:48:42;;;;;;;1.53;1.43;;;;;;;22.04;100.00;97398.81;4985647;28;20231;-65
2021/07/07 03:51:08;;;;;;;1.40;1.30;;;;;;;22.06;100.00;97404.84;4980289;28;20237;-65
2021/07/07 03:53:35;;;;;;;1.10;1.10;;;;;;;22.05;100.00;97402.22;4986123;28;20262;-66
2021/07/07 03:56:01;;;;;;;1.30;1.20;;;;;;;21.59;100.00;97333.63;4977435;28;20239;-65
2021/07/07 03:58:28;;;;;;;1.30;1.20;;;;;;;21.07;100.00;97236.81;4980924;28;20230;-65
2021/07/07 04:00:54;;;;;;;1.20;1.20;;;;;;;22.06;100.00;97404.84;4977027;28;20239;-65
2021/07/07 04:03:21;;;;;;;1.30;1.20;;;;;;;22.06;100.00;97404.84;4981819;28;20231;-65
2021/07/07 04:05:48;;;;;;;1.17;1.17;;;;;;;22.07;100.00;97413.34;4984538;28;20669;-64
2021/07/07 04:08:14;;;;;;;1.57;1.20;;;;;;;22.06;100.00;97415.06;4978500;28;20297;-65
2021/07/07 04:10:41;;;;;;;1.30;1.20;;;;;;;22.06;100.00;97425.31;4985576;28;20294;-61
2021/07/07 04:13:07;;;;;;;1.10;1.10;;;;;;;21.95;100.00;97408.81;4980209;28;20332;-65
2021/07/07 04:15:34;;;;;;;1.20;1.20;;;;;;;22.07;100.00;97433.84;4982245;28;20265;-65
2021/07/07 04:18:01;;;;;;;1.43;1.33;;;;;;;22.03;100.00;97419.22;4983948;28;20635;-64
2021/07/07 04:20:28;;;;;;;1.43;1.33;;;;;;;22.07;100.00;97438.94;4984100;28;20206;-64
2021/07/07 04:22:54;;;;;;;1.57;1.47;;;;;;;;;;4983541;28;20254;-65
2021/07/07 04:25:21;;;;;;;1.30;1.20;;;;;;;22.07;100.00;97446.63;4980557;28;20231;-64
2021/07/07 04:27:47;;;;;;;1.40;1.30;;;;;;;22.06;100.00;97450.91;4982656;28;20286;-65
2021/07/07 04:30:16;;;;;;;1.30;1.20;;;;;;;22.07;100.00;97456.88;4984359;28;20206;-64
2021/07/07 04:32:43;;;;;;;1.50;1.40;;;;;;;22.07;100.00;97474.78;4984894;28;20786;-64
2021/07/07 04:35:10;;;;;;;1.30;1.30;;;;;;;20.96;100.00;97291.84;4982055;28;20227;-64
2021/07/07 04:37:37;;;;;;;1.37;1.27;;;;;;;21.88;100.00;97446.97;4983872;28;20203;-65
2021/07/07 04:40:05;;;;;;;1.20;1.20;;;;;;;21.94;100.00;97481.28;4964410;28;20231;-65
2021/07/07 04:42:32;;;;;;;1.50;1.40;;;;;;;22.06;100.00;97494.41;4965545;28;20216;-65
2021/07/07 04:44:59;;;;;;;2.10;1.23;;;;;;;22.07;100.00;97492.69;4988013;28;21284;-64
2021/07/07 04:47:25;;;;;;;1.30;1.20;;;;;;;;;;4980232;28;20241;-65
2021/07/07 04:49:51;;;;;;;1.60;1.50;;;;;;;;;;4984216;28;20624;-64
2021/07/07 04:52:18;;;;;;;1.37;1.27;;;;;;;22.07;100.00;97485.00;4981909;28;20283;-65
2021/07/07 04:54:44;;;;;;;1.50;1.40;;;;;;;22.08;100.00;97494.44;4985709;28;20226;-66
2021/07/07 04:57:11;;;;;;;1.50;1.40;;;;;;;22.09;100.00;97503.84;4986563;28;20289;-65
2021/07/07 04:59:38;;;;;;;1.47;1.37;;;;;;;22.10;100.00;97506.44;4985446;28;20231;-66
2021/07/07 05:02:04;;;;;;;1.50;1.40;;;;;;;22.10;100.00;97503.00;4993154;28;20233;-65
2021/07/07 05:04:31;;;;;;;1.83;1.47;;;;;;;22.11;100.00;97504.78;4983797;28;20705;-65
2021/07/07 05:06:57;;;;;;;1.50;1.40;;;;;;;22.11;100.00;97500.50;4991311;28;20627;-65
2021/07/07 05:09:24;;;;;;;1.53;1.43;;;;;;;22.12;100.00;97499.69;4985402;28;20623;-64
2021/07/07 05:11:51;;;;;;;1.57;1.47;;;;;;;22.13;100.00;97493.72;4984466;28;20237;-65
2021/07/07 05:14:17;;;;;;;2.40;1.80;;;;;;;22.13;100.00;97498.84;4990606;28;20264;-66
2021/07/07 05:16:44;;;;;;;1.27;1.13;;;;;;;22.15;100.00;97496.34;4986956;28;20203;-62
2021/07/07 05:19:11;;;;;;;3.83;1.37;;;;;;;22.15;100.00;97506.56;4992524;28;20195;-67
2021/07/07 05:21:38;;;;;;;1.50;1.40;;;;;;;22.15;100.00;97493.78;4984894;28;20266;-66
2021/07/07 05:24:06;;;;;;;1.50;1.40;;;;;;;22.15;100.00;97491.22;4994991;28;20722;-65
2021/07/07 05:26:34;;;;;;;1.53;1.43;;;;;;;22.14;100.00;97485.22;4985951;28;20298;-66
2021/07/07 05:29:00;;;;;;;1.60;1.50;;;;;;;22.15;100.00;97471.63;4985422;28;20252;-66
2021/07/07 05:31:27;;;;;;;3.53;1.30;;;;;;;22.14;100.00;97484.38;4982689;28;20299;-66
2021/07/07 05:36:28;;;;;;;1.53;1.40;;;;;;;21.90;100.00;97440.22;5049798;23;20236;-67
2021/07/07 05:38:55;;;;;;;1.37;1.27;;;;;;;22.16;100.00;97492.94;5017690;28;20232;-71
2021/07/07 05:41:21;;;;;;;5.03;1.40;;;;;;;22.16;100.00;97508.28;5023948;28;20256;-67
2021/07/07 05:43:52;;;;;;;2.33;1.40;;;;;;;22.16;100.00;97488.69;5030828;28;20240;-67
2021/07/07 05:46:19;;;;;;;2.17;1.43;;;;;;;22.08;100.00;97477.38;5029785;28;20245;-68
2021/07/07 05:48:47;;;;;;;1.83;1.50;;;;;;;22.08;100.00;97497.84;5018354;28;20640;-68
2021/07/07 05:51:15;;;;;;;1.73;1.20;;;;;;;22.18;100.00;97527.13;5019737;28;20237;-70
2021/07/07 05:53:42;;;;;;;1.57;1.33;;;;;;;22.18;100.00;97527.13;5011149;28;20225;-70
2021/07/07 05:56:08;;;;;;;1.30;1.20;;;;;;;22.09;100.00;97499.59;5029622;28;20241;-68
2021/07/07 05:58:35;;;;;;;1.93;1.30;;;;;;;22.07;100.00;97495.25;5008638;28;20229;-64
2021/07/07 06:01:02;;;;;;;1.70;1.30;;;;;;;22.18;100.00;97525.44;5016830;28;20682;-69
2021/07/07 06:03:28;;;;;;;7.20;1.70;;;;;;;22.00;100.00;97493.38;5021960;28;20653;-69
2021/07/07 06:05:55;;;;;;;2.27;1.60;;;;;;;22.11;100.00;97507.34;5008651;28;20221;-68
2021/07/07 06:08:22;;;;;;;5.43;1.60;;;;;;;22.11;100.00;97504.78;5026352;28;20241;-69
2021/07/07 06:10:48;;;;;;;3.43;1.40;;;;;;;22.17;100.00;97510.91;5002790;28;20660;-71
2021/07/07 06:13:15;;;;;;;2.50;1.50;;;;;;;22.19;100.00;97519.50;5030884;28;20218;-71
2021/07/07 06:15:42;;;;;;;5.00;1.77;;;;;;;22.06;100.00;97491.84;5027656;28;20300;-71
2021/07/07 06:18:08;;;;;;;3.77;1.83;;;;;;;22.14;100.00;97509.97;5012480;28;20372;-67
2021/07/07 06:20:35;;;;;;;5.83;1.70;;;;;;;22.17;100.00;97518.56;5027663;28;20206;-69
2021/07/07 06:23:02;;;;;;;1.50;1.30;;;;;;;22.18;100.00;97517.78;5023737;28;20256;-68
2021/07/07 06:25:28;;;;;;;2.53;1.50;;;;;;;22.16;100.00;97500.63;5015639;28;20234;-68
2021/07/07 06:27:55;;;;;;;2.47;1.60;;;;;;;22.10;100.00;97503.00;5016346;28;20205;-68
2021/07/07 06:30:25;;;;;;;1.83;1.53;;;;;;;21.91;100.00;97481.22;5009318;28;20288;-71
2021/07/07 06:32:52;;;;;;;3.30;1.50;;;;;;;22.19;100.00;97528.84;5025704;28;20674;-68
2021/07/07 06:35:19;;;;;;;2.30;1.60;;;;;;;21.95;100.00;97482.13;5023164;28;20309;-69
2021/07/07 06:37:44;;;;;;;3.00;1.70;;;;;;;22.11;100.00;97512.44;5013805;28;20280;-71
2021/07/07 06:40:12;;;;;;;1.80;1.50;;;;;;;22.11;100.00;97513.28;5012905;28;20336;-68
2021/07/07 06:42:39;;;;;;;2.63;1.67;;;;;;;22.20;100.00;97528.06;5009038;28;20242;-71
2021/07/07 06:45:07;;;;;;;1.60;1.40;;;;;;;22.13;100.00;97518.44;5021581;28;20288;-71
2021/07/07 06:47:34;;;;;;;2.90;1.60;;;;;;;22.20;100.00;97526.34;5018504;28;20286;-68
2021/07/07 06:50:01;;;;;;;3.20;1.63;;;;;;;22.21;100.00;97517.84;5013694;28;20574;-68
2021/07/07 06:52:28;;;;;;;2.50;2.00;;;;;;;22.13;100.00;97501.41;5021580;28;20201;-68
2021/07/07 06:54:54;;;;;;;3.77;1.70;;;;;;;22.20;100.00;97525.50;5017551;28;20244;-68
2021/07/07 06:57:21;;;;;;;3.73;1.77;;;;;;;22.14;100.00;97530.44;5017183;28;20240;-67
2021/07/07 06:59:48;;;;;;;3.37;2.13;;;;;;;22.21;100.00;97546.00;5021255;28;20229;-71
2021/07/07 07:02:14;;;;;;;4.23;2.13;;;;;;;22.21;100.00;97543.44;5025399;28;20737;-70
2021/07/07 07:04:41;;;;;;;3.77;2.37;;;;;;;22.21;100.00;97555.38;5007987;28;20240;-64
2021/07/07 07:07:07;;;;;;;3.33;2.20;;;;;;;22.14;100.00;97543.25;5029249;28;20292;-68
2021/07/07 07:09:34;;;;;;;7.27;1.90;;;;;;;22.16;100.00;97551.81;5002944;28;20366;-73
2021/07/07 07:12:01;;;;;;;4.13;2.10;;;;;;;22.12;100.00;97540.66;5024384;28;20204;-64
2021/07/07 07:14:27;;;;;;;2.97;2.00;;;;;;;22.14;100.00;97538.13;5022190;28;20260;-68
2021/07/07 07:16:54;;;;;;;3.17;2.23;;;;;;;22.21;100.00;97546.00;5002947;28;20229;-65
2021/07/07 07:19:21;;;;;;;4.07;2.50;;;;;;;22.22;100.00;97557.09;5023320;28;20202;-66
2021/07/07 07:21:47;;;;;;;5.37;2.50;;;;;;;22.22;100.00;97554.53;5023092;28;20230;-70
2021/07/07 07:24:14;;;;;;;4.10;2.40;;;;;;;22.23;100.00;97556.28;5019152;28;20214;-68
2021/07/07 07:26:40;;;;;;;5.37;2.53;;;;;;;22.22;100.00;97555.41;5022179;28;20230;-66
2021/07/07 07:29:07;;;;;;;4.90;2.40;;;;;;;22.23;100.00;97553.72;5021929;28;20297;-69
2021/07/07 07:31:33;;;;;;;4.63;2.87;;;;;;;21.78;100.00;97476.56;5003735;28;20748;-70
2021/07/07 07:34:00;;;;;;;4.57;2.60;;;;;;;22.00;100.00;97518.97;5016223;28;20194;-65
2021/07/07 07:36:27;;;;;;;3.97;2.80;;;;;;;22.25;100.00;97564.84;5006600;28;20324;-70
2021/07/07 07:39:21;;;;;;;3.77;2.57;;;;;;;22.26;100.00;97564.06;5008927;28;20248;-68
2021/07/07 07:41:41;;;;;;;4.93;2.90;;;;;;;22.26;100.00;97554.66;5018898;28;20197;-64
2021/07/07 07:44:08;;;;;;;6.03;3.07;;;;;;;22.19;100.00;97545.09;5024770;28;20324;-68
2021/07/07 07:46:35;;;;;;;6.03;3.20;;;;;;;22.28;100.00;97565.81;5021337;28;20206;-68
2021/07/07 07:49:02;;;;;;;5.90;3.40;;;;;;;22.28;100.00;97580.31;5014917;28;20198;-67
2021/07/07 07:51:29;;;;;;;5.87;3.23;;;;;;;22.29;100.00;97585.47;5013703;28;20751;-69
2021/07/07 07:53:57;;;;;;;4.73;3.40;;;;;;;22.30;100.00;97583.78;5020259;28;20280;-69
2021/07/07 07:56:23;;;;;;;4.60;3.43;;;;;;;22.29;100.00;97579.50;5022290;28;20292;-69
2021/07/07 07:58:50;;;;;;;7.40;3.63;;;;;;;22.30;100.00;97587.22;5017709;28;20220;-69
2021/07/07 08:01:17;;;;;;;5.53;3.10;;;;;;;22.31;100.00;97599.19;5017928;28;20240;-68
2021/07/07 08:03:44;;;;;;;5.00;3.17;;;;;;;22.32;100.00;97602.63;5021004;28;20652;-70
2021/07/07 08:06:10;;;;;;;6.40;3.60;;;;;;;22.31;100.00;97603.44;5019454;28;20298;-68
2021/07/07 08:08:37;;;;;;;4.93;3.20;;;;;;;22.31;100.00;97596.63;5021724;28;20286;-66
2021/07/07 08:11:03;;;;;;;4.83;3.13;;;;;;;21.99;100.00;97546.22;5024983;28;20251;-68
2021/07/07 08:13:30;;;;;;;5.87;3.30;;;;;;;22.33;100.00;97606.91;5022323;28;20231;-71
2021/07/07 08:15:57;;;;;;;6.23;3.20;;;;;;;22.23;100.00;97598.09;5022822;28;20221;-69
2021/07/07 08:18:23;;;;;;;4.30;3.20;;;;;;;22.33;100.00;97610.34;5024085;28;20310;-69
2021/07/07 08:20:50;;;;;;;5.43;2.90;;;;;;;22.28;100.00;97606.78;5022483;28;20284;-70
2021/07/07 08:23:17;;;;;;;5.37;3.20;;;;;;;22.28;100.00;97603.34;5025073;28;20328;-70
2021/07/07 08:25:46;;;;;;;6.43;3.03;;;;;;;22.35;100.00;97608.69;5022048;28;20245;-72
2021/07/07 08:28:13;;;;;;;7.87;3.30;;;;;;;22.33;100.00;97605.22;5020449;28;20301;-69
2021/07/07 08:30:40;;;;;;;5.83;3.20;;;;;;;22.36;100.00;97613.00;5016994;28;20634;-70
2021/07/07 08:33:06;;;;;;;7.60;3.20;;;;;;;22.36;100.00;97617.22;5017416;28;20222;-69
2021/07/07 08:35:33;;;;;;;5.80;2.93;;;;;;;22.36;100.00;97619.78;4996114;28;20229;-70
2021/07/07 08:38:00;;;;;;;7.53;2.83;;;;;;;22.27;100.00;97615.31;5015209;28;20206;-72
2021/07/07 08:40:27;;;;;;;4.20;2.50;;;;;;;22.29;100.00;97623.03;5034160;28;20264;-71
2021/07/07 08:42:53;;;;;;;5.60;2.73;;;;;;;22.36;100.00;97637.72;4999594;28;20286;-72
2021/07/07 08:45:21;;;;;;;4.53;2.67;;;;;;;22.36;100.00;97642.84;5022586;28;20279;-67
2021/07/07 08:47:48;;;;;;;4.93;2.67;;;;;;;21.92;100.00;97579.28;5012277;28;20252;-70
2021/07/07 08:50:31;;;;;;;10.00;3.00;;;;;;;22.35;100.00;97669.28;5012415;28;20241;-71
2021/07/07 08:53:02;;;;;;;3.97;2.60;;;;;;;22.34;100.00;97672.66;5010891;28;20719;-69
2021/07/07 08:55:29;;;;;;;5.53;2.80;;;;;;;22.33;100.00;97670.91;5016581;28;20664;-70
2021/07/07 08:57:56;;;;;;;4.83;2.80;;;;;;;22.33;100.00;97679.47;5017389;28;20879;-68
2021/07/07 09:00:31;;;;;;;3.77;2.77;;;;;;;22.32;100.00;97677.72;5013495;28;20225;-72
2021/07/07 09:03:11;;;;;;;3.67;2.30;;;;;;;22.31;100.00;97678.56;5014580;28;20627;-71
2021/07/07 09:05:53;;;;;;;6.23;2.60;;;;;;;22.31;100.00;97675.13;5017309;28;20309;-69
2021/07/07 09:08:30;;;;;;;4.23;2.80;;;;;;;22.03;100.00;97616.28;5016316;28;20202;-69
2021/07/07 09:11:13;;;;;;;2.47;2.27;;;;;;;22.02;100.00;97612.00;5015890;28;20285;-69
2021/07/07 09:13:40;;;;;;;3.17;2.30;;;;;;;22.32;100.00;97667.47;5017048;28;20277;-70
2021/07/07 09:16:11;;;;;;;3.20;2.40;;;;;;;21.13;100.00;97464.41;5011561;28;20230;-71
2021/07/07 09:18:38;;;;;;;5.07;2.90;;;;;;;22.30;100.00;97673.41;5012948;28;20252;-72
2021/07/07 09:21:24;;;;;;;3.47;2.30;;;;;;;22.33;100.00;97681.16;5014580;28;20202;-71
2021/07/07 09:23:52;;;;;;;2.57;2.23;;;;;;;22.09;100.00;97640.38;5011362;28;20324;-68
2021/07/07 09:26:29;;;;;;;3.80;2.10;;;;;;;22.33;100.00;97688.84;5013018;28;20242;-70
2021/07/07 09:28:55;;;;;;;2.67;2.00;;;;;;;22.33;100.00;97693.97;5000185;28;20202;-66
2021/07/07 09:31:34;;;;;;;3.03;2.27;;;;;;;22.32;100.00;97689.69;4997175;28;20774;-70
2021/07/07 09:34:19;;;;;;;4.33;2.50;;;;;;;22.24;100.00;97675.78;5022775;28;20197;-71
2021/07/07 09:36:49;;;;;;;5.57;2.50;;;;;;;22.32;100.00;97687.97;5008144;28;20226;-70
2021/07/07 09:39:16;;;;;;;2.77;2.17;;;;;;;22.29;100.00;97676.78;5017225;28;20206;-69
2021/07/07 09:41:44;;;;;;;2.73;1.97;;;;;;;22.25;100.00;97670.69;5014227;28;20240;-72
2021/07/07 09:44:10;;;;;;;2.57;1.83;;;;;;;22.33;100.00;97686.28;5013673;28;20619;-67
2021/07/07 09:46:37;;;;;;;4.67;2.33;;;;;;;22.32;100.00;97682.84;5015697;28;20233;-72
2021/07/07 09:49:04;;;;;;;3.77;2.40;;;;;;;22.26;100.00;97669.88;5012646;28;20201;-70
2021/07/07 09:51:33;;;;;;;3.83;2.23;;;;;;;22.34;100.00;97685.44;5007708;28;20241;-68
2021/07/07 09:54:01;;;;;;;4.60;2.70;;;;;;;22.34;100.00;97688.88;5015317;28;20277;-71
2021/07/07 09:56:27;;;;;;;3.47;2.27;;;;;;;22.26;100.00;97676.69;5016483;28;20308;-69
2021/07/07 09:58:54;;;;;;;5.00;2.20;;;;;;;22.34;100.00;97688.88;5022798;28;20225;-71
2021/07/07 10:01:20;;;;;;;4.17;2.13;;;;;;;22.24;100.00;97670.66;5020986;28;20236;-70
2021/07/07 10:03:47;;;;;;;4.73;2.17;;;;;;;22.22;100.00;97665.50;5009307;28;20304;-70
2021/07/07 10:06:14;;;;;;;3.67;2.53;;;;;;;22.26;100.00;97680.09;5010050;28;20306;-70
2021/07/07 10:08:40;;;;;;;4.70;2.00;;;;;;;22.26;100.00;97685.22;5007749;28;20867;-68
2021/07/07 10:11:08;;;;;;;3.20;2.37;;;;;;;22.17;100.00;97674.72;5012139;28;20209;-72
2021/07/07 10:13:35;;;;;;;3.23;2.33;;;;;;;22.33;100.00;97702.53;5005215;28;20229;-69
2021/07/07 10:16:02;;;;;;;2.80;2.33;;;;;;;22.31;100.00;97695.59;5015032;28;20218;-70
2021/07/07 10:18:29;;;;;;;2.27;1.93;;;;;;;22.29;100.00;97695.56;5021904;28;20291;-73
2021/07/07 10:20:55;;;;;;;5.73;2.30;;;;;;;22.34;100.00;97703.38;5022820;28;20201;-72
2021/07/07 10:23:22;;;;;;;3.87;2.10;;;;;;;22.34;100.00;97704.25;5004531;28;20289;-73
2021/07/07 10:26:00;;;;;;;5.00;2.50;;;;;;;22.32;100.00;97694.81;5010352;28;20227;-71
2021/07/07 10:28:27;;;;;;;2.00;1.80;;;;;;;22.32;100.00;97705.03;5024287;28;20241;-69
2021/07/07 10:30:59;;;;;;;4.73;2.40;;;;;;;21.97;100.00;97642.59;5024138;28;20599;-69
2021/07/07 10:33:28;;;;;;;4.97;2.20;;;;;;;22.23;100.00;97690.25;5018761;28;20724;-72
2021/07/07 10:36:24;;;;;;;3.10;2.37;;;;;;;22.22;100.00;97690.22;5008337;28;20734;-70
2021/07/07 10:38:51;;;;;;;2.33;1.90;;;;;;;22.31;100.00;97701.59;5023468;28;20205;-68
2021/07/07 10:41:48;;;;;;;3.20;2.27;;;;;;;22.30;100.00;97697.31;5019926;28;20240;-68
2021/07/07 10:44:23;;;;;;;2.93;2.10;;;;;;;22.31;100.00;97705.84;5017873;28;20304;-70
2021/07/07 10:47:00;;;;;;;5.33;2.10;;;;;;;22.30;100.00;97699.00;5021521;28;20205;-71
2021/07/07 10:49:36;;;;;;;4.53;2.40;;;;;;;22.30;100.00;97704.13;5019064;28;20219;-70
2021/07/07 10:52:03;;;;;;;2.40;1.97;;;;;;;22.25;100.00;97692.88;5020693;28;20293;-71
2021/07/07 10:54:35;;;;;;;2.73;2.40;;;;;;;21.97;100.00;97655.38;5023820;28;20347;-70
2021/07/07 10:57:04;;;;;;;3.07;2.27;;;;;;;22.29;100.00;97704.97;5022965;28;20194;-70
2021/07/07 10:59:40;;;;;;;4.03;2.17;;;;;;;22.32;100.00;97702.47;5020203;28;20733;-71
2021/07/07 11:02:20;;;;;;;2.77;2.33;;;;;;;22.32;100.00;97700.78;5026493;28;20205;-70
2021/07/07 11:04:50;;;;;;;5.53;2.27;;;;;;;22.24;100.00;97680.91;5021701;28;20236;-68
2021/07/07 11:07:33;;;;;;;3.03;2.30;;;;;;;22.09;100.00;97671.09;5020632;28;20649;-73
2021/07/07 11:10:00;;;;;;;4.70;2.70;;;;;;;22.23;100.00;97686.84;4997993;28;20648;-71
2021/07/07 11:12:36;;;;;;;5.63;3.60;;;;;;;22.33;100.00;97699.09;5018942;28;20246;-70
2021/07/07 11:15:09;;;;;;;9.33;4.47;;;;;;;22.34;100.00;97700.81;5023929;28;20311;-72
2021/07/07 11:17:39;;;;;;;8.53;4.30;;;;;;;22.34;100.00;97703.38;5019823;28;20811;-71
2021/07/07 11:20:07;;;;;;;7.47;4.10;;;;;;;22.34;100.00;97700.81;5022984;28;20198;-71
2021/07/07 11:22:34;;;;;;;9.53;3.63;;;;;;;22.27;100.00;97687.00;5022378;28;20247;-70
2021/07/07 11:25:04;;;;;;;5.17;3.60;;;;;;;22.28;100.00;97682.72;5024879;28;20684;-68
2021/07/07 11:27:34;;;;;;;6.40;3.17;;;;;;;22.35;100.00;97692.31;5010627;28;20248;-66
2021/07/07 11:30:02;;;;;;;7.00;3.30;;;;;;;22.36;100.00;97699.19;5024699;28;20577;-66
2021/07/07 11:32:40;;;;;;;5.90;3.83;;;;;;;22.36;100.00;97704.31;5025359;28;20618;-72
2021/07/07 11:35:12;;;;;;;7.47;3.70;;;;;;;22.35;100.00;97708.53;5024340;28;20722;-69